Time;durP1;ratioP1;P1;durP2;ratioP2;P2;SDS_P1;SDS_P2;PMS_P1;PMS_P2;Temp;Humidity;BMP_temperature;BMP_pressure;BME280_temperature;BME280_humidity;BME280_pressure;Samples;Min_cycle;Max_cycle;Signal;HPM_P1;HPM_P2
2022/02/25 00:00:17;;;;;;;63.73;29.00;;;;;;;-1.18;65.68;101769.62;1699552;84;27492;-58
2022/02/25 00:02:46;;;;;;;62.30;29.32;;;;;;;-1.23;65.77;101771.05;1699829;83;25508;-58
2022/02/25 00:05:13;;;;;;;67.50;32.17;;;;;;;-1.24;65.76;101760.53;1699736;83;25830;-58
2022/02/25 00:07:40;;;;;;;67.90;33.55;;;;;;;-1.27;65.90;101766.75;1699833;84;25755;-57
2022/02/25 00:10:10;;;;;;;78.67;36.25;;;;;;;-1.29;65.99;101762.81;1700082;84;25929;-57
2022/02/25 00:12:39;;;;;;;71.22;31.75;;;;;;;-1.31;65.91;101763.33;1700046;84;27298;-58
2022/02/25 00:15:07;;;;;;;62.67;29.00;;;;;;;-1.33;65.92;101755.88;1699670;84;25485;-57
2022/02/25 00:17:34;;;;;;;61.35;28.52;;;;;;;-1.35;65.81;101757.68;1700019;84;25784;-58
2022/02/25 00:20:01;;;;;;;62.23;30.32;;;;;;;-1.34;65.99;101750.62;1699599;84;25860;-59
2022/02/25 00:22:28;;;;;;;57.55;30.25;;;;;;;-1.36;65.92;101746.70;1699552;84;26356;-58
2022/02/25 00:24:55;;;;;;;61.10;27.73;;;;;;;-1.37;66.03;101748.92;1699822;84;27490;-58
2022/02/25 00:27:22;;;;;;;62.75;28.65;;;;;;;-1.38;66.12;101742.37;1699785;84;25723;-59
2022/02/25 00:29:49;;;;;;;56.28;28.70;;;;;;;-1.43;65.91;101740.69;1701186;83;25738;-60
2022/02/25 00:32:16;;;;;;;65.32;29.63;;;;;;;-1.46;65.97;101737.25;1702981;83;25882;-59
2022/02/25 00:34:43;;;;;;;59.93;27.52;;;;;;;-1.46;66.09;101739.89;1703032;83;27401;-59
2022/02/25 00:37:10;;;;;;;65.78;29.12;;;;;;;-1.48;66.05;101729.84;1702995;83;27538;-56
2022/02/25 00:39:37;;;;;;;55.83;28.23;;;;;;;-1.46;66.21;101726.70;1700863;84;25500;-57
2022/02/25 00:42:07;;;;;;;60.05;29.23;;;;;;;-1.48;66.38;101724.57;1699806;84;25816;-59
2022/02/25 00:44:34;;;;;;;55.48;27.40;;;;;;;-1.53;66.25;101719.83;1699639;84;25760;-58
2022/02/25 00:47:01;;;;;;;70.35;30.65;;;;;;;-1.57;66.34;101725.16;1676925;85;25769;-57
2022/02/25 00:49:28;;;;;;;63.83;30.97;;;;;;;-1.58;66.29;101718.18;1677236;85;28797;-56
2022/02/25 00:51:54;;;;;;;65.97;30.15;;;;;;;-1.58;66.32;101711.58;1676834;84;25739;-57
2022/02/25 00:54:21;;;;;;;60.17;29.00;;;;;;;-1.59;66.34;101707.20;1676850;85;25755;-58
2022/02/25 00:56:49;;;;;;;59.98;28.50;;;;;;;-1.63;66.40;101705.52;1676828;85;25826;-58
2022/02/25 00:59:15;;;;;;;54.18;30.95;;;;;;;-1.64;66.32;101701.61;1676967;85;26219;-57
2022/02/25 01:01:42;;;;;;;64.58;29.42;;;;;;;-1.66;66.31;101700.77;1676873;84;27489;-58
2022/02/25 01:04:09;;;;;;;59.53;28.40;;;;;;;-1.66;66.54;101702.95;1677102;84;25775;-58
2022/02/25 01:06:36;;;;;;;58.38;28.38;;;;;;;-1.69;66.73;101697.75;1676744;84;25858;-57
2022/02/25 01:09:03;;;;;;;60.48;27.37;;;;;;;-1.69;66.48;101693.80;1727505;83;25794;-58
2022/02/25 01:11:30;;;;;;;63.98;29.57;;;;;;;-1.70;66.67;101697.80;1729095;82;25738;-57
2022/02/25 01:13:57;;;;;;;59.80;28.02;;;;;;;-1.72;66.61;101690.37;1728698;82;28691;-57
2022/02/25 01:16:24;;;;;;;57.98;28.98;;;;;;;-1.73;66.65;101684.20;1728611;81;25697;-57
2022/02/25 01:18:51;;;;;;;63.28;31.82;;;;;;;-1.72;66.63;101678.03;1729242;82;25644;-57
2022/02/25 01:21:18;;;;;;;61.55;29.63;;;;;;;-1.81;66.51;101673.84;1728818;82;26164;-57
2022/02/25 01:23:45;;;;;;;60.75;28.07;;;;;;;-1.81;66.56;101669.89;1728586;82;25790;-58
2022/02/25 01:26:12;;;;;;;63.68;30.27;;;;;;;-1.83;66.65;101676.08;1728670;82;28174;-60
2022/02/25 01:28:39;;;;;;;67.65;30.40;;;;;;;-1.82;66.97;101670.78;1728764;82;25930;-57
2022/02/25 01:31:05;;;;;;;82.35;37.48;;;;;;;-1.83;66.83;101665.09;1741792;82;25700;-57
2022/02/25 01:33:32;;;;;;;162.18;61.80;;;;;;;-1.84;66.78;101663.81;1740817;82;25720;-57
2022/02/25 01:36:00;;;;;;;96.55;37.58;;;;;;;-1.83;66.86;101657.61;1742455;82;25981;-57
2022/02/25 01:38:28;;;;;;;64.70;30.12;;;;;;;-1.81;66.72;101667.25;1742547;81;27487;-57
2022/02/25 01:40:56;;;;;;;61.20;28.70;;;;;;;-1.80;66.86;101658.88;1751582;81;25824;-60
2022/02/25 01:43:23;;;;;;;64.10;30.05;;;;;;;-1.81;66.63;101657.13;1750798;82;25714;-57
2022/02/25 01:45:50;;;;;;;60.17;29.00;;;;;;;-1.83;66.48;101655.86;1750682;81;25790;-60
2022/02/25 01:48:19;;;;;;;61.20;29.23;;;;;;;-1.82;66.48;101652.32;1750834;82;25514;-57
2022/02/25 01:50:47;;;;;;;64.03;29.00;;;;;;;-1.80;66.45;101642.61;1751073;81;27436;-59
2022/02/25 01:53:14;;;;;;;58.28;27.70;;;;;;;-1.86;66.23;101641.88;1750607;82;25782;-59
2022/02/25 01:55:45;;;;;;;57.85;27.30;;;;;;;-1.91;66.30;101638.02;1751089;81;25818;-57
2022/02/25 01:58:11;;;;;;;59.45;28.45;;;;;;;-1.94;66.49;101635.45;1750671;81;25785;-57
2022/02/25 02:00:39;;;;;;;60.38;28.17;;;;;;;-1.99;66.58;101636.02;1750706;81;25827;-60
2022/02/25 02:03:06;;;;;;;52.17;27.90;;;;;;;-2.02;66.64;101629.48;1750725;82;27479;-57
2022/02/25 02:05:35;;;;;;;63.40;28.12;;;;;;;-2.04;66.36;101624.25;1750677;82;25794;-59
2022/02/25 02:08:01;;;;;;;55.55;26.40;;;;;;;-2.07;66.34;101627.83;1750847;81;25695;-59
2022/02/25 02:10:28;;;;;;;54.33;28.40;;;;;;;-2.08;66.45;101623.88;1750695;82;25872;-57
2022/02/25 02:12:55;;;;;;;58.13;27.22;;;;;;;-2.07;66.55;101623.87;1751032;81;25727;-57
2022/02/25 02:15:22;;;;;;;68.70;28.73;;;;;;;-2.06;66.43;101618.98;1750551;82;27482;-57
2022/02/25 02:17:49;;;;;;;49.25;26.33;;;;;;;-2.08;66.45;101618.61;1750643;81;25894;-59
2022/02/25 02:20:16;;;;;;;69.60;28.60;;;;;;;-2.07;66.49;101626.51;1750811;82;25816;-57
2022/02/25 02:22:43;;;;;;;65.28;29.05;;;;;;;-2.11;66.40;101627.46;1750854;81;25808;-57
2022/02/25 02:25:10;;;;;;;49.23;27.48;;;;;;;-2.12;66.47;101622.23;1750863;82;25924;-57
2022/02/25 02:30:22;;;;;;;53.98;26.15;;;;;;;-2.21;66.43;101619.33;1755141;80;25800;-59
2022/02/25 02:32:49;;;;;;;49.83;26.65;;;;;;;-2.20;66.59;101624.56;1756694;80;25794;-59
2022/02/25 02:35:16;;;;;;;53.23;26.02;;;;;;;-2.20;66.54;101612.70;1757048;81;26870;-60
2022/02/25 02:37:43;;;;;;;53.60;26.10;;;;;;;-2.23;66.49;101607.95;1757054;81;25795;-57
2022/02/25 02:40:11;;;;;;;50.65;24.12;;;;;;;-2.24;66.52;101602.28;1759427;81;28180;-60
2022/02/25 02:42:38;;;;;;;52.35;26.68;;;;;;;-2.24;66.48;101604.45;1759771;81;25764;-59
2022/02/25 02:45:07;;;;;;;51.63;25.32;;;;;;;-2.24;66.42;101603.14;1760292;81;25443;-59
2022/02/25 02:47:34;;;;;;;53.02;27.35;;;;;;;-2.26;66.46;101593.08;1762218;80;25816;-59
2022/02/25 02:50:04;;;;;;;54.13;25.40;;;;;;;-2.26;66.32;101594.86;1764230;80;25906;-59
2022/02/25 02:52:31;;;;;;;57.03;25.50;;;;;;;-2.29;66.18;101595.80;1762187;81;27471;-59
2022/02/25 02:54:58;;;;;;;55.73;27.13;;;;;;;-2.32;66.14;101585.73;1762565;80;25465;-59
2022/02/25 02:57:25;;;;;;;55.65;25.82;;;;;;;-2.32;66.26;101593.22;1761827;80;25470;-59
2022/02/25 02:59:53;;;;;;;56.08;26.48;;;;;;;-2.29;66.43;101594.48;1762132;80;25858;-60
2022/02/25 03:02:19;;;;;;;63.10;27.98;;;;;;;-2.27;66.33;101595.75;1762363;80;25943;-59
2022/02/25 03:04:48;;;;;;;55.48;29.48;;;;;;;-2.27;66.25;101596.61;1762730;80;27462;-58
2022/02/25 03:07:14;;;;;;;61.98;30.15;;;;;;;-2.23;66.40;101596.09;1762135;81;25806;-59
2022/02/25 03:09:42;;;;;;;53.68;26.23;;;;;;;-2.21;66.32;101595.17;1762472;80;25706;-59
2022/02/25 03:12:09;;;;;;;59.45;27.82;;;;;;;-2.21;66.43;101592.54;1762495;80;26489;-59
2022/02/25 03:14:37;;;;;;;52.35;25.50;;;;;;;-2.18;66.44;101598.63;1762268;81;25723;-59
2022/02/25 03:17:05;;;;;;;44.00;24.43;;;;;;;-2.20;66.28;101595.56;1762256;81;27436;-60
2022/02/25 03:19:35;;;;;;;44.18;24.07;;;;;;;-2.27;66.05;101593.97;1762820;80;25766;-59
2022/02/25 03:22:02;;;;;;;49.48;24.60;;;;;;;-2.31;66.10;101587.05;1762110;81;25779;-57
2022/02/25 03:24:29;;;;;;;43.60;23.50;;;;;;;-2.31;65.95;101582.20;1762173;80;25924;-59
2022/02/25 03:26:56;;;;;;;49.40;23.92;;;;;;;-2.30;65.93;101584.83;1762239;81;26445;-57
2022/02/25 03:29:23;;;;;;;53.40;25.27;;;;;;;-2.31;65.91;101583.09;1755566;80;28196;-57
2022/02/25 03:31:50;;;;;;;51.35;24.65;;;;;;;-2.32;65.90;101580.47;1733309;82;25779;-57
2022/02/25 03:34:17;;;;;;;48.48;24.32;;;;;;;-2.30;65.93;101577.36;1733471;82;25688;-57
2022/02/25 03:36:44;;;;;;;53.83;23.52;;;;;;;-2.27;65.89;101581.26;1733616;81;25762;-57
2022/02/25 03:39:11;;;;;;;56.63;25.62;;;;;;;-2.23;65.91;101576.31;1740669;81;25797;-59
2022/02/25 03:41:39;;;;;;;62.15;25.37;;;;;;;-2.20;66.00;101573.63;1751010;80;27526;-57
2022/02/25 03:44:07;;;;;;;49.25;23.40;;;;;;;-2.25;66.40;101568.92;1750562;81;25810;-57
2022/02/25 03:46:33;;;;;;;51.10;23.55;;;;;;;-2.33;67.04;101565.13;1751106;80;25648;-59
2022/02/25 03:49:00;;;;;;;43.87;22.45;;;;;;;-2.37;66.93;101563.44;1750403;80;25754;-59
2022/02/25 03:51:29;;;;;;;45.40;22.35;;;;;;;-2.38;67.01;101561.27;1750697;81;27284;-58
2022/02/25 03:53:56;;;;;;;47.65;22.62;;;;;;;-2.41;67.02;101549.47;1751063;81;28583;-59
2022/02/25 03:56:23;;;;;;;47.60;23.95;;;;;;;-2.38;67.33;101549.41;1750919;80;25720;-60
2022/02/25 03:58:50;;;;;;;50.15;23.10;;;;;;;-2.33;67.35;101540.55;1750177;81;25727;-59
2022/02/25 04:01:17;;;;;;;36.68;21.48;;;;;;;-2.31;67.40;101549.27;1751756;80;25839;-57
2022/02/25 04:03:44;;;;;;;45.95;22.40;;;;;;;-2.32;67.37;101544.89;1750954;81;25791;-58
2022/02/25 04:06:10;;;;;;;50.55;23.18;;;;;;;-2.33;67.34;101541.41;1751429;80;28224;-57
2022/02/25 04:08:37;;;;;;;52.58;24.60;;;;;;;-2.29;67.54;101528.59;1750618;81;25779;-57
2022/02/25 04:11:04;;;;;;;57.88;27.98;;;;;;;-2.25;67.53;101533.34;1750551;81;25502;-57
2022/02/25 04:13:31;;;;;;;70.70;32.93;;;;;;;-2.25;67.40;101522.33;1750822;81;25812;-59
2022/02/25 04:15:58;;;;;;;92.12;41.68;;;;;;;-2.27;67.18;101517.53;1750917;81;25793;-57
2022/02/25 04:18:25;;;;;;;74.15;33.63;;;;;;;-2.30;67.31;101520.27;1750249;81;26824;-57
2022/02/25 04:20:51;;;;;;;65.85;31.80;;;;;;;-2.33;67.19;101519.00;1751483;80;25779;-58
2022/02/25 04:23:19;;;;;;;57.70;27.87;;;;;;;-2.42;67.22;101509.52;1750883;81;25806;-57
2022/02/25 04:25:46;;;;;;;51.37;23.75;;;;;;;-2.54;67.26;101510.66;1750814;81;28043;-58
2022/02/25 04:28:13;;;;;;;44.42;23.90;;;;;;;-2.63;66.97;101504.75;1750238;80;25858;-58
2022/02/25 04:30:41;;;;;;;44.27;23.18;;;;;;;-2.68;67.19;101508.80;1759695;81;28223;-57
2022/02/25 04:33:08;;;;;;;43.87;23.47;;;;;;;-2.70;67.29;101503.58;1761940;80;25471;-58
2022/02/25 04:35:35;;;;;;;41.65;21.93;;;;;;;-2.70;67.28;101506.64;1726523;82;25820;-58
2022/02/25 04:38:04;;;;;;;42.65;22.58;;;;;;;-2.69;67.40;101499.16;1762397;80;25783;-58
2022/02/25 04:40:31;;;;;;;36.73;20.20;;;;;;;-2.74;67.33;101495.77;1759517;80;25481;-58
2022/02/25 04:42:58;;;;;;;39.15;19.50;;;;;;;-2.81;67.37;101500.72;1741481;82;27582;-57
2022/02/25 04:45:26;;;;;;;34.35;20.48;;;;;;;-2.90;67.38;101499.17;1741331;82;26037;-57
2022/02/25 04:47:55;;;;;;;38.45;20.00;;;;;;;-2.95;67.61;101498.37;1741391;81;25665;-58
2022/02/25 04:50:22;;;;;;;41.75;20.92;;;;;;;-2.98;67.58;101496.68;1741393;81;26997;-57
2022/02/25 04:52:49;;;;;;;40.33;20.30;;;;;;;-2.97;67.75;101490.52;1741314;82;25747;-58
2022/02/25 04:55:19;;;;;;;40.88;21.00;;;;;;;-3.01;68.05;101488.87;1741280;81;27465;-57
2022/02/25 04:57:48;;;;;;;38.85;20.40;;;;;;;-3.06;68.18;101484.13;1741174;82;25663;-58
2022/02/25 05:00:17;;;;;;;41.33;20.80;;;;;;;-3.11;67.89;101482.91;1741431;82;25739;-57
2022/02/25 05:02:46;;;;;;;50.78;22.82;;;;;;;-3.11;68.04;101479.42;1741535;82;25876;-58
2022/02/25 05:05:15;;;;;;;46.08;21.27;;;;;;;-3.07;68.06;101486.34;1741678;82;25715;-58
2022/02/25 05:07:42;;;;;;;38.17;20.27;;;;;;;-3.04;68.10;101483.19;1741406;81;28337;-58
2022/02/25 05:10:11;;;;;;;39.88;18.90;;;;;;;-2.96;68.25;101486.99;1741536;82;25676;-59
2022/02/25 05:12:38;;;;;;;43.02;19.25;;;;;;;-2.90;68.28;101486.00;1741375;82;25750;-57
2022/02/25 05:20:38;;;;;;;36.70;18.37;;;;;;;-2.74;68.30;101487.87;1741431;82;27402;-58
2022/02/25 05:23:06;;;;;;;40.03;18.05;;;;;;;-2.67;68.12;101496.05;1741426;82;25704;-58
2022/02/25 05:25:33;;;;;;;37.03;19.55;;;;;;;-2.62;68.11;101496.80;1741820;81;25671;-59
2022/02/25 05:28:00;;;;;;;39.03;18.12;;;;;;;-2.57;67.90;101494.06;1741534;82;25779;-58
2022/02/25 05:30:28;;;;;;;53.68;20.95;;;;;;;-2.52;67.87;101502.75;1731778;82;25963;-58
2022/02/25 05:32:55;;;;;;;43.45;21.77;;;;;;;-2.48;67.74;101489.05;1727532;82;27489;-58
2022/02/25 05:35:22;;;;;;;53.02;21.57;;;;;;;-2.48;67.60;101491.23;1728077;82;25776;-58
2022/02/25 05:37:50;;;;;;;45.98;20.52;;;;;;;-2.43;67.64;101495.07;1727013;82;25884;-59
2022/02/25 05:40:19;;;;;;;48.63;21.00;;;;;;;-2.36;67.66;101491.39;1739876;81;26579;-58
2022/02/25 05:42:47;;;;;;;46.77;21.73;;;;;;;-2.29;67.68;101489.05;1756354;80;25751;-58
2022/02/25 05:45:16;;;;;;;49.73;22.93;;;;;;;-2.18;67.62;101497.13;1760691;81;27476;-58
2022/02/25 05:47:44;;;;;;;45.43;21.55;;;;;;;-2.14;67.46;101492.22;1761970;80;25723;-59
2022/02/25 05:50:16;;;;;;;50.45;25.50;;;;;;;-2.08;67.30;101498.22;1762484;80;25793;-59
2022/02/25 05:52:46;;;;;;;48.73;24.12;;;;;;;-2.05;67.06;101497.27;1761330;81;25785;-59
2022/02/25 05:55:15;;;;;;;50.35;26.17;;;;;;;-2.05;66.77;101494.63;1703123;83;26912;-57
2022/02/25 05:57:45;;;;;;;68.28;25.80;;;;;;;-2.05;66.74;101492.84;1705364;83;28427;-57
2022/02/25 06:00:15;;;;;;;56.08;27.30;;;;;;;-2.02;66.71;101489.30;1705088;83;25524;-57
2022/02/25 06:02:45;;;;;;;57.85;28.55;;;;;;;-1.95;66.78;101490.87;1705294;84;25849;-57
2022/02/25 06:05:14;;;;;;;45.83;24.35;;;;;;;-1.91;66.99;101486.38;1705079;83;26786;-57
2022/02/25 06:07:41;;;;;;;46.25;21.97;;;;;;;-1.85;66.87;101488.85;1705287;84;25752;-57
2022/02/25 06:10:10;;;;;;;54.67;24.40;;;;;;;-1.79;66.76;101485.20;1705079;84;27567;-57
2022/02/25 06:12:39;;;;;;;51.92;24.87;;;;;;;-1.75;66.62;101494.31;1705211;83;25829;-58
2022/02/25 06:15:08;;;;;;;62.78;26.05;;;;;;;-1.72;66.63;101493.36;1704974;84;25689;-58
2022/02/25 06:17:48;;;;;;;60.52;25.40;;;;;;;-1.66;66.62;101498.47;1705245;83;25728;-58
2022/02/25 06:20:19;;;;;;;58.30;23.92;;;;;;;-1.60;67.00;101497.02;1704672;84;25555;-58
2022/02/25 06:22:47;;;;;;;48.58;22.22;;;;;;;-1.53;67.25;101494.20;1705431;84;28197;-58
2022/02/25 06:25:15;;;;;;;52.27;23.77;;;;;;;-1.42;67.40;101490.83;1705170;84;25858;-58
2022/02/25 06:27:42;;;;;;;54.15;22.82;;;;;;;-1.33;67.44;101498.50;1705156;84;25445;-58
2022/02/25 06:30:12;;;;;;;46.53;21.23;;;;;;;-1.28;67.53;101494.42;1701019;84;25812;-59
2022/02/25 06:32:40;;;;;;;48.28;22.25;;;;;;;-1.19;67.52;101501.20;1697709;84;26415;-57
2022/02/25 06:35:08;;;;;;;55.05;24.25;;;;;;;-1.11;67.40;101494.81;1697321;84;27483;-58
2022/02/25 06:37:35;;;;;;;46.85;21.70;;;;;;;-1.03;67.36;101491.93;1697659;84;25752;-60
2022/02/25 06:40:04;;;;;;;50.92;23.35;;;;;;;-1.02;67.15;101484.42;1703303;84;25828;-59
2022/02/25 06:42:31;;;;;;;55.48;24.27;;;;;;;-0.99;67.21;101481.70;1750136;81;25972;-59
2022/02/25 06:44:59;;;;;;;46.20;19.20;;;;;;;-0.96;67.50;101482.06;1741124;82;26085;-58
2022/02/25 06:47:25;;;;;;;37.17;18.15;;;;;;;-0.93;68.20;101482.42;1741719;82;28230;-58
2022/02/25 06:49:53;;;;;;;52.83;19.67;;;;;;;-0.91;68.09;101485.89;1741210;81;25724;-57
2022/02/25 06:52:20;;;;;;;38.28;18.65;;;;;;;-0.82;68.37;101481.66;1741675;82;25629;-58
2022/02/25 06:54:47;;;;;;;46.35;20.72;;;;;;;-0.75;68.71;101481.88;1741564;81;25856;-57
2022/02/25 06:57:14;;;;;;;79.65;40.33;;;;;;;-0.66;68.97;101481.61;1741424;82;25775;-58
2022/02/25 06:59:41;;;;;;;49.58;24.82;;;;;;;-0.59;69.12;101470.40;1741560;81;27458;-58
2022/02/25 07:02:09;;;;;;;46.08;22.62;;;;;;;-0.48;69.27;101476.23;1741719;81;25700;-58
2022/02/25 07:04:36;;;;;;;43.17;23.42;;;;;;;-0.35;69.28;101482.44;1741326;82;25719;-59
2022/02/25 07:07:04;;;;;;;46.45;22.07;;;;;;;-0.27;69.16;101475.59;1741732;82;26126;-57
2022/02/25 07:09:31;;;;;;;52.70;21.23;;;;;;;-0.18;69.15;101471.33;1741394;82;27380;-58
2022/02/25 07:11:58;;;;;;;49.38;23.38;;;;;;;-0.07;69.05;101469.65;1741439;82;27459;-58
2022/02/25 07:14:24;;;;;;;39.08;20.08;;;;;;;-0.01;69.19;101478.72;1741199;82;25751;-58
2022/02/25 07:16:53;;;;;;;43.17;18.40;;;;;;;0.08;69.63;101469.60;1741589;82;25739;-59
2022/02/25 07:19:20;;;;;;;37.67;19.35;;;;;;;0.22;69.80;101466.48;1731154;82;25778;-57
2022/02/25 07:21:47;;;;;;;33.42;17.67;;;;;;;0.33;69.49;101462.14;1716088;83;25723;-58
2022/02/25 07:24:15;;;;;;;38.13;18.65;;;;;;;0.41;69.61;101468.03;1715712;83;27651;-58
2022/02/25 07:26:41;;;;;;;38.53;19.98;;;;;;;0.53;69.91;101463.64;1715824;83;25914;-57
2022/02/25 07:29:10;;;;;;;40.25;19.00;;;;;;;0.67;69.76;101470.24;1714189;82;25684;-57
2022/02/25 07:31:39;;;;;;;39.75;21.12;;;;;;;0.75;69.48;101465.06;1706286;83;26589;-58
2022/02/25 07:34:06;;;;;;;45.30;19.32;;;;;;;0.86;69.66;101465.13;1705966;83;25792;-58
2022/02/25 07:36:35;;;;;;;39.67;18.37;;;;;;;0.95;69.80;101464.79;1695080;83;28326;-58
2022/02/25 07:39:05;;;;;;;37.48;18.75;;;;;;;1.06;69.68;101466.59;1694306;83;25810;-57
2022/02/25 07:41:32;;;;;;;38.40;19.42;;;;;;;1.19;70.12;101472.28;1691368;82;25632;-57
2022/02/25 07:43:59;;;;;;;38.23;18.80;;;;;;;1.29;70.07;101469.28;1751675;80;25779;-57
2022/02/25 07:46:26;;;;;;;41.10;19.73;;;;;;;1.38;69.58;101467.60;1758679;80;25538;-58
2022/02/25 07:48:54;;;;;;;43.35;19.87;;;;;;;1.50;69.46;101464.92;1759128;81;29592;-58
2022/02/25 07:51:21;;;;;;;43.90;18.57;;;;;;;1.58;69.26;101459.30;1760674;81;25920;-58
2022/02/25 07:53:48;;;;;;;63.33;23.57;;;;;;;1.66;69.19;101461.20;1760003;81;25522;-59
2022/02/25 07:56:16;;;;;;;61.88;25.60;;;;;;;1.75;69.70;101462.12;1759977;81;25792;-58
2022/02/25 07:58:43;;;;;;;48.95;24.25;;;;;;;1.86;69.63;101465.22;1759016;81;25813;-57
2022/02/25 08:01:13;;;;;;;52.98;25.35;;;;;;;1.99;69.76;101465.58;1759503;81;27503;-57
2022/02/25 08:03:41;;;;;;;54.40;25.52;;;;;;;2.11;69.51;101459.36;1759871;81;25696;-57
2022/02/25 08:06:09;;;;;;;63.33;30.82;;;;;;;2.25;69.28;101450.81;1760038;81;25815;-58
2022/02/25 08:08:37;;;;;;;63.33;27.10;;;;;;;2.40;69.07;101451.47;1760615;81;25805;-57
2022/02/25 08:11:05;;;;;;;48.83;24.20;;;;;;;2.58;69.13;101452.92;1760164;81;25766;-57
2022/02/25 08:13:32;;;;;;;41.73;19.07;;;;;;;2.75;68.93;101448.20;1759667;81;27479;-57
2022/02/25 08:15:59;;;;;;;51.92;19.90;;;;;;;2.90;68.75;101447.98;1760193;81;25746;-57
2022/02/25 08:18:27;;;;;;;53.50;18.52;;;;;;;3.04;68.59;101444.20;1733440;81;25800;-57
2022/02/25 08:20:53;;;;;;;57.78;21.00;;;;;;;3.23;68.27;101438.88;1759220;80;26536;-57
2022/02/25 08:23:21;;;;;;;47.73;18.70;;;;;;;3.39;67.74;101442.16;1731903;81;25747;-57
2022/02/25 08:25:48;;;;;;;51.92;19.98;;;;;;;3.54;67.36;101447.22;1732041;81;28523;-57
2022/02/25 08:28:15;;;;;;;44.42;20.90;;;;;;;3.67;66.91;101437.69;1733762;80;25715;-57
2022/02/25 08:30:43;;;;;;;44.83;21.85;;;;;;;3.88;66.85;101422.94;1739667;81;25712;-57
2022/02/25 08:33:11;;;;;;;38.53;18.30;;;;;;;4.05;66.70;101411.42;1741848;82;25808;-57
2022/02/25 08:35:38;;;;;;;35.30;17.17;;;;;;;4.25;66.08;101410.41;1739241;81;25768;-57
2022/02/25 08:38:06;;;;;;;34.95;17.30;;;;;;;4.47;65.97;101399.95;1741706;81;27467;-58
2022/02/25 08:40:36;;;;;;;41.65;17.07;;;;;;;4.71;65.36;101404.45;1750292;81;25720;-57
2022/02/25 08:43:03;;;;;;;40.10;19.07;;;;;;;4.95;64.14;101408.05;1750122;81;25817;-57
2022/02/25 08:45:34;;;;;;;44.25;20.10;;;;;;;5.16;64.13;101405.54;1750618;81;25919;-58
2022/02/25 08:48:00;;;;;;;44.05;19.80;;;;;;;5.37;62.43;101404.41;1751265;80;25753;-57
2022/02/25 08:50:28;;;;;;;55.25;20.08;;;;;;;5.60;62.54;101405.28;1750756;81;27546;-57
2022/02/25 08:52:55;;;;;;;42.85;16.60;;;;;;;5.84;62.05;101398.61;1750441;81;25735;-57
2022/02/25 08:55:24;;;;;;;37.42;17.25;;;;;;;6.07;60.96;101397.28;1752856;80;25446;-58
2022/02/25 08:57:53;;;;;;;34.55;17.12;;;;;;;6.34;59.09;101389.89;1750814;81;25821;-57
2022/02/25 09:00:23;;;;;;;38.98;17.05;;;;;;;6.57;58.74;101379.13;1751653;80;25927;-56
2022/02/25 09:02:52;;;;;;;38.60;16.20;;;;;;;6.81;59.47;101379.41;1750626;81;28134;-57
2022/02/25 09:05:24;;;;;;;28.02;14.13;;;;;;;7.06;57.56;101377.84;1750792;80;25791;-57
2022/02/25 09:07:53;;;;;;;31.68;15.58;;;;;;;7.31;57.34;101375.78;1750364;81;25743;-57
2022/02/25 09:10:21;;;;;;;31.65;15.28;;;;;;;7.60;57.43;101369.45;1751015;80;25774;-58
2022/02/25 09:12:49;;;;;;;31.68;13.88;;;;;;;7.91;57.33;101367.41;1751114;81;25701;-58
2022/02/25 09:15:22;;;;;;;32.25;13.35;;;;;;;8.25;57.23;101365.92;1750639;81;27474;-58
2022/02/25 09:17:59;;;;;;;41.55;16.20;;;;;;;8.59;53.93;101353.36;1750665;80;25651;-57
2022/02/25 09:20:28;;;;;;;39.78;15.05;;;;;;;8.89;52.25;101350.30;1751196;80;25818;-57
2022/02/25 09:22:57;;;;;;;29.90;14.05;;;;;;;9.19;53.17;101345.02;1751638;80;25725;-57
2022/02/25 09:25:26;;;;;;;34.58;12.68;;;;;;;9.54;53.20;101333.47;1750656;81;25676;-57
2022/02/25 09:27:55;;;;;;;31.07;12.50;;;;;;;10.09;51.33;101337.41;1751146;80;27433;-58
2022/02/25 09:30:22;;;;;;;24.43;11.48;;;;;;;10.75;50.94;101335.41;1759079;80;25709;-58
2022/02/25 09:32:49;;;;;;;20.48;9.73;;;;;;;11.69;47.70;101329.03;1761690;81;25464;-57
2022/02/25 09:35:16;;;;;;;24.45;9.48;;;;;;;12.61;42.97;101326.61;1761807;81;25816;-58
2022/02/25 09:37:44;;;;;;;21.40;9.75;;;;;;;13.37;43.43;101316.64;1761976;81;25785;-58
2022/02/25 09:40:15;;;;;;;24.47;10.15;;;;;;;14.17;41.85;101316.43;1762074;81;27486;-58
2022/02/25 09:42:43;;;;;;;27.45;10.78;;;;;;;14.77;41.11;101314.38;1757264;81;25798;-58
2022/02/25 09:45:14;;;;;;;20.92;9.90;;;;;;;15.31;39.09;101307.71;1739664;82;25887;-57
2022/02/25 09:47:42;;;;;;;20.68;9.95;;;;;;;15.80;40.37;101306.78;1735905;82;25747;-58
2022/02/25 09:50:13;;;;;;;21.00;10.18;;;;;;;16.39;38.87;101318.90;1735710;81;25818;-58
2022/02/25 09:52:42;;;;;;;24.77;9.78;;;;;;;16.97;37.73;101309.16;1735450;82;27555;-58
2022/02/25 09:55:23;;;;;;;23.00;10.15;;;;;;;17.44;37.81;101301.44;1735543;82;25724;-58
2022/02/25 09:57:51;;;;;;;37.10;8.93;;;;;;;18.08;37.32;101304.85;1735842;82;25807;-58
2022/02/25 10:00:19;;;;;;;14.40;7.65;;;;;;;18.83;37.61;101290.47;1735787;82;25796;-58
2022/02/25 10:02:50;;;;;;;15.95;6.95;;;;;;;19.54;34.30;101286.28;1735827;82;25972;-58
2022/02/25 10:05:24;;;;;;;21.25;7.90;;;;;;;19.82;32.80;101281.60;1735917;82;28178;-58
2022/02/25 10:07:52;;;;;;;9.90;5.90;;;;;;;20.20;31.60;101277.50;1735548;82;25958;-59
2022/02/25 10:10:24;;;;;;;14.13;6.42;;;;;;;20.52;28.29;101266.38;1735770;82;25712;-58
2022/02/25 10:13:00;;;;;;;10.73;5.20;;;;;;;20.76;26.38;101261.97;1735713;82;25794;-58
2022/02/25 10:15:31;;;;;;;19.92;6.92;;;;;;;20.82;27.14;101253.53;1716712;82;25785;-58
2022/02/25 10:18:08;;;;;;;10.20;5.95;;;;;;;21.20;25.96;101267.50;1735746;82;27500;-58
2022/02/25 10:20:35;;;;;;;19.15;6.92;;;;;;;21.29;27.32;101251.81;1735110;82;25481;-58
2022/02/25 10:23:26;;;;;;;23.65;8.48;;;;;;;21.54;25.98;101248.13;1735783;82;25728;-58
2022/02/25 10:25:56;;;;;;;15.55;7.80;;;;;;;21.87;26.26;101245.69;1735942;82;25808;-57
2022/02/25 10:28:30;;;;;;;18.27;7.35;;;;;;;22.04;25.47;101246.73;1715909;82;25750;-57
2022/02/25 10:31:21;;;;;;;20.32;7.47;;;;;;;22.34;23.66;101245.12;1751192;81;28235;-58
2022/02/25 10:34:16;;;;;;;14.98;7.08;;;;;;;22.46;23.75;101246.26;1754658;80;25761;-58
2022/02/25 10:36:53;;;;;;;27.20;8.35;;;;;;;22.50;25.56;101236.59;1754775;81;25531;-57
2022/02/25 10:39:29;;;;;;;20.35;10.78;;;;;;;23.03;24.98;101232.86;1748370;81;25779;-57
2022/02/25 10:42:19;;;;;;;19.05;8.90;;;;;;;23.40;22.13;101234.20;1741565;82;25502;-58
2022/02/25 10:44:59;;;;;;;21.73;9.05;;;;;;;23.38;21.39;101238.21;1759730;81;27588;-57
2022/02/25 10:47:29;;;;;;;19.87;8.43;;;;;;;23.08;22.43;101232.56;1761695;81;25747;-57
2022/02/25 10:50:11;;;;;;;16.93;9.00;;;;;;;23.46;21.20;101236.63;1762305;81;25628;-57
2022/02/25 10:52:47;;;;;;;15.93;8.78;;;;;;;23.47;21.17;101222.36;1761873;80;26831;-58
2022/02/25 10:55:22;;;;;;;19.10;8.40;;;;;;;23.40;21.68;101222.35;1761792;80;25706;-58
2022/02/25 10:57:53;;;;;;;19.90;10.08;;;;;;;23.59;22.32;101215.19;1762116;81;27480;-58
2022/02/25 11:00:22;;;;;;;17.60;9.18;;;;;;;23.98;22.12;101209.87;1761855;81;25800;-58
2022/02/25 11:02:52;;;;;;;13.65;7.03;;;;;;;24.18;22.29;101205.17;1761162;81;25896;-58
2022/02/25 11:05:32;;;;;;;16.23;6.17;;;;;;;24.59;21.16;101192.11;1761868;80;25888;-58
2022/02/25 11:08:03;;;;;;;14.18;6.47;;;;;;;24.96;19.86;101192.34;1762274;80;25719;-58
2022/02/25 11:10:33;;;;;;;9.80;5.47;;;;;;;25.02;20.16;101185.63;1762078;81;27480;-58
2022/02/25 11:13:06;;;;;;;8.85;5.37;;;;;;;25.23;20.31;101182.51;1762101;81;25985;-58
2022/02/25 11:15:37;;;;;;;8.20;3.87;;;;;;;25.53;20.93;101175.50;1762121;81;26034;-58
2022/02/25 11:18:04;;;;;;;8.33;3.90;;;;;;;25.14;18.08;101174.22;1762424;80;25786;-58
2022/02/25 11:20:35;;;;;;;6.40;4.53;;;;;;;25.18;17.75;101176.81;1761924;81;25912;-58
2022/02/25 11:23:06;;;;;;;10.43;5.87;;;;;;;24.92;17.45;101186.13;1761722;81;28291;-58
2022/02/25 11:25:37;;;;;;;9.25;4.78;;;;;;;24.42;18.78;101184.05;1762458;80;25513;-58